SPHO/AYP METAR and TAF weather

Enter ICAO airport designator
Station Type Date Time Source
SPHO METAR 2019/10/14 23:00 UTC NOAA

SPHO 142300Z 32006KT 280V010 9999 SCT080 22/03 Q1022 RMK PP000


Station Type Date Time Source
SPHO Decoded METAR 2019/10/14 23:00 UTC NOAA

Ayacucho, Peru (SPHO) 13-08S 074-13W 2749M
Oct 14, 2019 - 07:00 PM EDT / 2019.10.14 2300 UTC
Wind: from the NW (320 degrees) at 7 MPH (6 KT) (direction variable):0
Visibility: greater than 7 mile(s):0
Sky conditions: partly cloudy
Temperature: 71 F (22 C)
Dew Point: 37 F (3 C)
Relative Humidity: 28%
Pressure (altimeter): 30.18 in. Hg (1022 hPa)
ob: SPHO 142300Z 32006KT 280V010 9999 SCT080 22/03 Q1022 RMK PP000
cycle: 23

Station Type Date Time Source
SPHO TAF 2019/10/14 18:33 UTC NOAA

SPHO 141700Z 1418/1518 VRB03KT 9999 FEW040 TX26/1420Z TN07/1511Z
TEMPO 1418/1420 FEW050TCU BKN080
TEMPO 1420/1423 TSRA FEW035CB BKN070
BECMG 1506/1508 FEW030 SCT080

Example: see airport list